Time;durP1;ratioP1;P1;durP2;ratioP2;P2;SDS_P1;SDS_P2;PMS_P1;PMS_P2;Temp;Humidity;BMP_temperature;BMP_pressure;BME280_temperature;BME280_humidity;BME280_pressure;Samples;Min_cycle;Max_cycle;Signal;HPM_P1;HPM_P2
2021/01/13 00:00:08;;;;;;;0.90;0.50;;;2.70;99.90;;;;;;5072548;28;20445;-58
2021/01/13 00:02:35;;;;;;;0.82;0.50;;;2.80;99.90;;;;;;5073643;28;20478;-57
2021/01/13 00:05:02;;;;;;;1.40;0.60;;;2.80;99.90;;;;;;5072789;28;20739;-56
2021/01/13 00:07:28;;;;;;;0.88;0.50;;;2.80;99.90;;;;;;5074412;28;20559;-54
2021/01/13 00:09:56;;;;;;;1.30;0.60;;;2.90;99.90;;;;;;5072999;28;20424;-55
2021/01/13 00:12:22;;;;;;;1.80;0.50;;;3.00;99.90;;;;;;5074666;28;20724;-52
2021/01/13 00:14:48;;;;;;;0.80;0.45;;;3.00;99.90;;;;;;5074855;28;20756;-56
2021/01/13 00:17:15;;;;;;;0.93;0.50;;;3.00;99.90;;;;;;5073204;28;20914;-57
2021/01/13 00:19:41;;;;;;;1.00;0.50;;;2.90;99.90;;;;;;5073292;28;20875;-56
2021/01/13 00:22:09;;;;;;;0.65;0.40;;;3.00;99.90;;;;;;5073667;28;20511;-57
2021/01/13 00:24:35;;;;;;;0.88;0.50;;;3.00;99.90;;;;;;5074044;28;20716;-57
2021/01/13 00:27:03;;;;;;;0.90;0.40;;;3.00;99.90;;;;;;5074080;28;20477;-54
2021/01/13 00:29:30;;;;;;;1.02;0.50;;;3.00;99.90;;;;;;5074702;28;20510;-54
2021/01/13 00:31:57;;;;;;;0.60;0.40;;;3.00;99.90;;;;;;5074453;28;20518;-53
2021/01/13 00:34:23;;;;;;;0.60;0.40;;;3.10;99.90;;;;;;5074022;28;20519;-56
2021/01/13 00:36:50;;;;;;;1.13;0.50;;;3.20;99.90;;;;;;5074054;28;20800;-56
2021/01/13 00:39:16;;;;;;;0.82;0.50;;;3.20;99.90;;;;;;5073548;28;20534;-53
2021/01/13 00:41:43;;;;;;;1.38;0.40;;;3.10;99.90;;;;;;5074176;28;20505;-56
2021/01/13 00:44:10;;;;;;;1.48;0.40;;;3.10;99.90;;;;;;5073759;28;20918;-54
2021/01/13 00:46:39;;;;;;;0.90;0.50;;;3.00;99.90;;;;;;5072635;28;20517;-56
2021/01/13 00:49:06;;;;;;;1.90;0.40;;;3.10;99.90;;;;;;5071605;28;20506;-56
2021/01/13 00:51:37;;;;;;;1.08;0.40;;;3.10;99.90;;;;;;5071917;28;20526;-55
2021/01/13 00:54:05;;;;;;;1.63;0.40;;;3.10;99.90;;;;;;5071834;28;20779;-53
2021/01/13 00:56:32;;;;;;;0.80;0.45;;;3.10;99.90;;;;;;5071850;28;20474;-53
2021/01/13 00:58:58;;;;;;;1.50;0.40;;;3.10;99.90;;;;;;5073158;28;20706;-54
2021/01/13 01:01:27;;;;;;;1.10;0.40;;;3.20;99.90;;;;;;5073003;28;20926;-55
2021/01/13 01:03:53;;;;;;;0.95;0.50;;;3.30;99.90;;;;;;5074120;28;20431;-55
2021/01/13 01:06:20;;;;;;;1.10;0.35;;;3.30;99.90;;;;;;5073495;28;20466;-53
2021/01/13 01:08:47;;;;;;;0.70;0.40;;;3.30;99.90;;;;;;5073096;28;20803;-56
2021/01/13 01:11:15;;;;;;;0.90;0.40;;;3.30;99.90;;;;;;5072742;28;20530;-56
2021/01/13 01:13:42;;;;;;;0.70;0.40;;;3.30;99.90;;;;;;5073544;28;20454;-54
2021/01/13 01:16:08;;;;;;;1.70;0.40;;;3.30;99.90;;;;;;5073785;28;20471;-56
2021/01/13 01:18:35;;;;;;;1.15;0.40;;;3.30;99.90;;;;;;5073770;28;20530;-55
2021/01/13 01:21:02;;;;;;;1.27;0.40;;;3.40;99.90;;;;;;5073266;28;20428;-55
2021/01/13 01:23:28;;;;;;;3.10;0.50;;;3.30;99.90;;;;;;5073260;28;20510;-54
2021/01/13 01:25:55;;;;;;;0.70;0.35;;;3.30;99.90;;;;;;5072111;28;20649;-53
2021/01/13 01:28:21;;;;;;;1.30;0.47;;;3.40;99.90;;;;;;5072675;28;20506;-55
2021/01/13 01:30:47;;;;;;;0.60;0.40;;;3.40;99.90;;;;;;5072971;28;20523;-54
2021/01/13 01:33:14;;;;;;;0.63;0.40;;;3.40;99.90;;;;;;5073732;28;20435;-53
2021/01/13 01:35:41;;;;;;;0.80;0.40;;;3.40;99.90;;;;;;5072258;28;20854;-56
2021/01/13 01:38:07;;;;;;;1.35;0.40;;;3.30;99.90;;;;;;5072851;28;20498;-57
2021/01/13 01:40:34;;;;;;;0.50;0.40;;;3.20;99.90;;;;;;5073265;28;20420;-53
2021/01/13 01:43:00;;;;;;;0.75;0.40;;;3.10;99.90;;;;;;5072692;28;20874;-55
2021/01/13 01:45:29;;;;;;;0.60;0.30;;;3.20;99.90;;;;;;5072008;28;20508;-55
2021/01/13 01:48:26;;;;;;;0.60;0.30;;;3.30;99.90;;;;;;5072458;28;20518;-55
2021/01/13 01:50:58;;;;;;;1.20;0.30;;;3.30;99.90;;;;;;5071394;28;20518;-54
2021/01/13 01:53:41;;;;;;;1.20;0.40;;;3.40;99.90;;;;;;5071420;28;20474;-55
2021/01/13 01:56:17;;;;;;;0.80;0.40;;;3.30;99.90;;;;;;5072172;28;20799;-55
2021/01/13 01:58:48;;;;;;;0.70;0.40;;;3.30;99.90;;;;;;5072368;28;20423;-57
2021/01/13 02:01:19;;;;;;;0.90;0.40;;;3.20;99.90;;;;;;5075253;28;20481;-56
2021/01/13 02:03:49;;;;;;;0.80;0.30;;;3.20;99.90;;;;;;5074254;28;20893;-56
2021/01/13 02:06:18;;;;;;;0.90;0.30;;;3.10;99.90;;;;;;5073620;28;20430;-54
2021/01/13 02:08:45;;;;;;;0.68;0.38;;;3.00;99.90;;;;;;5074352;28;20502;-55
2021/01/13 02:11:16;;;;;;;0.50;0.30;;;3.00;99.90;;;;;;5074114;28;20522;-56
2021/01/13 02:13:42;;;;;;;0.60;0.30;;;3.00;99.90;;;;;;5074120;28;20403;-51
2021/01/13 02:16:11;;;;;;;0.73;0.30;;;3.00;99.90;;;;;;5073582;28;20484;-59
2021/01/13 02:18:41;;;;;;;1.13;0.37;;;3.00;99.90;;;;;;5072893;28;20528;-54
2021/01/13 02:21:14;;;;;;;0.52;0.30;;;3.00;99.90;;;;;;5073711;28;20881;-55
2021/01/13 02:23:46;;;;;;;0.55;0.30;;;3.00;99.90;;;;;;5074588;28;20419;-55
2021/01/13 02:26:52;;;;;;;1.08;0.40;;;3.00;99.90;;;;;;5075477;28;20433;-56
2021/01/13 02:29:26;;;;;;;0.63;0.30;;;3.20;99.90;;;;;;4992589;28;20494;-53
2021/01/13 02:32:16;;;;;;;1.30;0.30;;;3.20;99.90;;;;;;5073010;28;20419;-54
2021/01/13 02:34:53;;;;;;;1.10;0.30;;;3.30;99.90;;;;;;5067470;28;20427;-56
2021/01/13 02:37:51;;;;;;;0.80;0.40;;;3.30;99.90;;;;;;5073996;28;20525;-55
2021/01/13 02:40:20;;;;;;;1.00;0.40;;;3.20;99.90;;;;;;5074471;28;20513;-54
2021/01/13 02:43:03;;;;;;;1.00;0.40;;;3.20;99.90;;;;;;5074595;28;20807;-53
2021/01/13 02:45:34;;;;;;;1.00;0.30;;;3.20;99.90;;;;;;5075522;28;20435;-52
2021/01/13 02:48:15;;;;;;;1.50;0.30;;;3.20;99.90;;;;;;5076720;28;20727;-55
2021/01/13 02:50:55;;;;;;;0.70;0.30;;;3.20;99.90;;;;;;5076420;28;20876;-53
2021/01/13 02:53:54;;;;;;;1.10;0.30;;;3.10;99.90;;;;;;5076609;28;20859;-51
2021/01/13 02:56:43;;;;;;;0.60;0.30;;;3.20;99.90;;;;;;5076280;28;20496;-55
2021/01/13 02:59:12;;;;;;;0.80;0.40;;;3.20;99.90;;;;;;5076769;28;20419;-54
2021/01/13 03:01:41;;;;;;;0.73;0.30;;;3.10;99.90;;;;;;5075757;28;20518;-54
2021/01/13 03:04:08;;;;;;;1.00;0.40;;;3.20;99.90;;;;;;5075818;28;20577;-56
2021/01/13 03:06:38;;;;;;;1.10;0.30;;;3.20;99.90;;;;;;5076528;28;20527;-55
2021/01/13 03:09:06;;;;;;;1.30;0.30;;;3.10;99.90;;;;;;5076466;28;20850;-55
2021/01/13 03:11:33;;;;;;;1.30;0.30;;;3.10;99.90;;;;;;5076434;28;20502;-54
2021/01/13 03:14:09;;;;;;;1.67;0.40;;;3.20;99.90;;;;;;5075415;28;20418;-56
2021/01/13 03:16:43;;;;;;;0.50;0.30;;;3.20;99.90;;;;;;5075094;28;20534;-54
2021/01/13 03:19:18;;;;;;;0.60;0.30;;;3.20;99.90;;;;;;5076269;28;20427;-55
2021/01/13 03:21:59;;;;;;;0.90;0.30;;;3.40;99.90;;;;;;5075249;28;20431;-54
2021/01/13 03:24:40;;;;;;;1.00;0.35;;;3.30;99.90;;;;;;5075455;28;20495;-56
2021/01/13 03:27:09;;;;;;;0.50;0.30;;;3.30;99.90;;;;;;5076656;28;20504;-55
2021/01/13 03:29:41;;;;;;;0.50;0.30;;;3.30;99.90;;;;;;5076202;28;20502;-53
2021/01/13 03:32:21;;;;;;;0.52;0.30;;;3.30;99.90;;;;;;5070063;28;20519;-54
2021/01/13 03:35:12;;;;;;;1.60;0.30;;;3.30;99.90;;;;;;5054878;28;20499;-56
2021/01/13 03:37:58;;;;;;;0.73;0.40;;;3.40;99.90;;;;;;5051728;28;20448;-55
2021/01/13 03:40:26;;;;;;;1.00;0.30;;;3.40;99.90;;;;;;5055252;28;20511;-52
2021/01/13 03:42:54;;;;;;;0.70;0.30;;;3.40;99.90;;;;;;5055894;28;20516;-56
2021/01/13 03:45:34;;;;;;;1.42;0.30;;;3.30;99.90;;;;;;5055782;28;20464;-56
2021/01/13 03:48:10;;;;;;;1.90;0.30;;;3.30;99.90;;;;;;5055494;28;20908;-53
2021/01/13 03:50:39;;;;;;;0.90;0.40;;;3.20;99.90;;;;;;5055868;28;20500;-55
2021/01/13 03:53:08;;;;;;;0.90;0.40;;;3.30;99.90;;;;;;5055521;28;20528;-55
2021/01/13 03:55:36;;;;;;;1.05;0.30;;;3.20;99.90;;;;;;5055689;28;20421;-54
2021/01/13 03:58:44;;;;;;;0.60;0.30;;;3.20;99.90;;;;;;5054588;28;20521;-55
2021/01/13 04:01:41;;;;;;;0.60;0.40;;;3.20;99.90;;;;;;5055568;28;20437;-55
2021/01/13 04:04:24;;;;;;;0.80;0.30;;;3.20;99.90;;;;;;5055612;28;20439;-54
2021/01/13 04:06:59;;;;;;;0.60;0.30;;;3.10;99.90;;;;;;5055069;28;20451;-56
2021/01/13 04:09:25;;;;;;;0.40;0.30;;;3.10;99.90;;;;;;5055355;28;20421;-55
2021/01/13 04:12:16;;;;;;;0.70;0.40;;;2.90;99.90;;;;;;5055188;28;20433;-50
2021/01/13 04:14:57;;;;;;;0.60;0.40;;;2.80;99.90;;;;;;5054925;28;20418;-54
2021/01/13 04:17:24;;;;;;;0.50;0.30;;;2.80;99.90;;;;;;5032838;28;20431;-53
2021/01/13 04:19:53;;;;;;;0.70;0.30;;;2.80;99.90;;;;;;5031974;28;20423;-52
2021/01/13 04:22:21;;;;;;;0.70;0.40;;;2.70;99.90;;;;;;5033185;28;20514;-53
2021/01/13 04:24:48;;;;;;;1.20;0.30;;;2.70;99.90;;;;;;5033497;28;20903;-53
2021/01/13 04:27:16;;;;;;;0.60;0.30;;;2.70;99.90;;;;;;5034592;28;20433;-54
2021/01/13 04:29:43;;;;;;;1.50;0.30;;;2.70;99.90;;;;;;5033651;28;20427;-55
2021/01/13 04:32:10;;;;;;;1.60;0.30;;;2.70;99.90;;;;;;5033568;28;20473;-53
2021/01/13 04:34:37;;;;;;;0.88;0.40;;;2.80;99.90;;;;;;5032906;28;20419;-54
2021/01/13 04:37:06;;;;;;;1.40;0.40;;;2.70;99.90;;;;;;5031750;28;20520;-55
2021/01/13 04:39:33;;;;;;;0.40;0.30;;;2.70;99.90;;;;;;5032982;28;20419;-54
2021/01/13 04:42:06;;;;;;;1.10;0.30;;;2.70;99.90;;;;;;5033393;28;20435;-56
2021/01/13 04:44:35;;;;;;;0.50;0.30;;;2.60;99.90;;;;;;5034490;28;20434;-54
2021/01/13 04:47:07;;;;;;;0.60;0.30;;;2.60;99.90;;;;;;5033749;28;20427;-56
2021/01/13 04:49:36;;;;;;;0.70;0.40;;;2.70;99.90;;;;;;5034722;28;20849;-55
2021/01/13 04:52:11;;;;;;;0.60;0.40;;;2.70;99.90;;;;;;5033412;28;20431;-55
2021/01/13 04:54:39;;;;;;;0.87;0.40;;;2.50;99.90;;;;;;5033302;28;20640;-55
2021/01/13 04:57:16;;;;;;;1.85;0.40;;;2.50;99.90;;;;;;5034103;28;20710;-54
2021/01/13 05:00:07;;;;;;;1.10;0.30;;;2.50;99.90;;;;;;5034002;28;20427;-55
2021/01/13 05:03:08;;;;;;;0.70;0.40;;;2.50;99.90;;;;;;5033118;28;20431;-51
2021/01/13 05:05:46;;;;;;;0.63;0.40;;;2.60;99.90;;;;;;5002489;28;20465;-55
2021/01/13 05:08:28;;;;;;;0.70;0.40;;;2.70;99.90;;;;;;5033275;28;20853;-53
2021/01/13 05:11:10;;;;;;;0.65;0.40;;;2.80;99.90;;;;;;5026412;28;20437;-55
2021/01/13 05:13:40;;;;;;;0.70;0.30;;;2.70;99.90;;;;;;5033450;28;20847;-51
2021/01/13 05:16:11;;;;;;;1.00;0.30;;;2.60;99.90;;;;;;5049411;28;20424;-52
2021/01/13 05:18:52;;;;;;;1.40;0.37;;;2.60;99.90;;;;;;5074129;28;20496;-55
2021/01/13 05:21:20;;;;;;;0.70;0.40;;;2.60;99.90;;;;;;5073512;28;20474;-55
2021/01/13 05:23:49;;;;;;;1.10;0.40;;;2.50;99.90;;;;;;5073195;28;20419;-55
2021/01/13 05:26:18;;;;;;;0.68;0.30;;;2.50;99.90;;;;;;5074172;28;20427;-56
2021/01/13 05:29:23;;;;;;;0.60;0.30;;;2.50;99.90;;;;;;5074366;28;20488;-56
2021/01/13 05:31:51;;;;;;;1.50;0.43;;;2.60;99.90;;;;;;5063751;28;20785;-56
2021/01/13 05:34:19;;;;;;;1.55;0.50;;;3.00;99.90;;;;;;5074859;28;20420;-53
2021/01/13 05:37:18;;;;;;;1.00;0.50;;;3.00;99.90;;;;;;5078108;28;20508;-56
2021/01/13 05:39:47;;;;;;;0.60;0.40;;;3.00;99.90;;;;;;5076717;28;20787;-55
2021/01/13 05:42:17;;;;;;;1.80;0.40;;;2.80;99.90;;;;;;5076250;28;20469;-53
2021/01/13 05:44:44;;;;;;;1.73;0.40;;;2.90;99.90;;;;;;5075555;28;20427;-54
2021/01/13 05:47:47;;;;;;;0.85;0.40;;;3.10;99.90;;;;;;5075816;28;20423;-53
2021/01/13 05:50:18;;;;;;;0.70;0.30;;;3.40;99.90;;;;;;5076005;28;20419;-52
2021/01/13 05:52:46;;;;;;;0.53;0.30;;;3.60;99.90;;;;;;5077392;28;20431;-54
2021/01/13 05:55:16;;;;;;;1.20;0.30;;;3.60;99.90;;;;;;5076395;28;20423;-54
2021/01/13 05:57:53;;;;;;;1.80;0.30;;;3.60;99.90;;;;;;5075658;28;20429;-54
2021/01/13 06:00:21;;;;;;;0.60;0.30;;;3.50;99.90;;;;;;5075126;28;20453;-57
2021/01/13 06:02:49;;;;;;;0.70;0.30;;;3.40;99.90;;;;;;5076183;28;20484;-57
2021/01/13 06:05:16;;;;;;;0.50;0.30;;;3.40;99.90;;;;;;5076115;28;20498;-54
2021/01/13 06:07:46;;;;;;;0.60;0.40;;;3.40;99.90;;;;;;5076847;28;20427;-57
2021/01/13 06:10:14;;;;;;;0.60;0.30;;;3.50;99.90;;;;;;5076663;28;20843;-55
2021/01/13 06:12:46;;;;;;;0.70;0.40;;;3.40;99.90;;;;;;5077323;28;20423;-53
2021/01/13 06:15:14;;;;;;;1.90;0.40;;;3.30;99.90;;;;;;5075771;28;20415;-55
2021/01/13 06:17:49;;;;;;;1.30;0.40;;;3.10;99.90;;;;;;5076115;28;20434;-55
2021/01/13 06:20:18;;;;;;;1.10;0.40;;;2.80;99.90;;;;;;5076486;28;20426;-53
2021/01/13 06:22:48;;;;;;;1.30;0.40;;;2.70;99.90;;;;;;5075128;28;20527;-54
2021/01/13 06:25:21;;;;;;;1.00;0.45;;;2.50;99.90;;;;;;5073654;28;20793;-55
2021/01/13 06:28:06;;;;;;;1.00;0.47;;;2.40;99.90;;;;;;5074476;28;20458;-56
2021/01/13 06:30:38;;;;;;;1.33;0.40;;;2.50;99.90;;;;;;5074744;28;20411;-53
2021/01/13 06:33:08;;;;;;;0.60;0.40;;;2.50;99.90;;;;;;5074606;28;20424;-52
2021/01/13 06:36:06;;;;;;;0.80;0.47;;;2.50;99.90;;;;;;5074463;28;20886;-54
2021/01/13 06:38:42;;;;;;;1.60;0.50;;;2.60;99.90;;;;;;5050715;28;20498;-55
2021/01/13 06:41:11;;;;;;;2.10;0.50;;;2.50;99.90;;;;;;5075586;28;20459;-55
2021/01/13 06:43:37;;;;;;;1.80;0.50;;;2.40;99.90;;;;;;5075466;28;20910;-53
2021/01/13 06:46:18;;;;;;;0.90;0.50;;;2.20;99.90;;;;;;5072477;28;20613;-56
2021/01/13 06:48:45;;;;;;;1.65;0.50;;;2.10;99.90;;;;;;5073082;28;20832;-54
2021/01/13 06:51:16;;;;;;;2.40;0.50;;;2.00;99.90;;;;;;5073818;28;20431;-56
2021/01/13 06:53:46;;;;;;;0.90;0.50;;;2.00;99.90;;;;;;5073452;28;20482;-54
2021/01/13 06:56:15;;;;;;;1.00;0.50;;;1.90;99.90;;;;;;5074921;28;20485;-55
2021/01/13 06:58:56;;;;;;;1.10;0.60;;;1.90;99.90;;;;;;5073901;28;20419;-55
2021/01/13 07:01:22;;;;;;;0.80;0.50;;;1.90;99.90;;;;;;5073088;28;20451;-56
2021/01/13 07:03:57;;;;;;;0.98;0.50;;;1.90;99.90;;;;;;5072872;28;20485;-57
2021/01/13 07:06:24;;;;;;;1.05;0.60;;;1.90;99.90;;;;;;5072810;28;20803;-55
2021/01/13 07:08:51;;;;;;;0.90;0.60;;;1.80;99.90;;;;;;5072451;28;20427;-55
2021/01/13 07:11:19;;;;;;;0.98;0.60;;;1.80;99.90;;;;;;5071344;28;20420;-53
2021/01/13 07:13:52;;;;;;;0.90;0.60;;;1.80;99.90;;;;;;5072034;28;20419;-54
2021/01/13 07:16:27;;;;;;;1.80;0.60;;;1.90;99.90;;;;;;5070927;28;20444;-54
2021/01/13 07:18:56;;;;;;;1.20;0.60;;;1.90;99.90;;;;;;5070538;28;20420;-58
2021/01/13 07:21:36;;;;;;;1.17;0.70;;;1.80;99.90;;;;;;5069082;28;20433;-56
2021/01/13 07:24:11;;;;;;;1.10;0.52;;;1.80;99.90;;;;;;5072336;28;20481;-57
2021/01/13 07:26:40;;;;;;;1.80;0.50;;;1.80;99.90;;;;;;5074708;28;20501;-57
2021/01/13 07:29:07;;;;;;;3.80;0.60;;;1.80;99.90;;;;;;5073399;28;20451;-57
2021/01/13 07:31:35;;;;;;;0.97;0.60;;;1.80;99.90;;;;;;5072604;28;20813;-55
2021/01/13 07:34:11;;;;;;;1.35;0.60;;;1.80;99.90;;;;;;5072149;28;20423;-56
2021/01/13 07:36:40;;;;;;;1.10;0.60;;;1.80;99.90;;;;;;5072792;28;20427;-54
2021/01/13 07:39:08;;;;;;;1.50;0.60;;;1.70;99.90;;;;;;5071281;28;20456;-50
2021/01/13 07:42:03;;;;;;;2.80;0.70;;;1.70;99.90;;;;;;5070134;28;20458;-51
2021/01/13 07:44:40;;;;;;;2.03;0.60;;;1.60;99.90;;;;;;5058848;28;20835;-52
2021/01/13 07:47:29;;;;;;;0.90;0.60;;;1.60;99.90;;;;;;5072743;28;20552;-53
2021/01/13 07:50:08;;;;;;;1.10;0.60;;;1.50;99.90;;;;;;5072031;28;21032;-53
2021/01/13 07:52:45;;;;;;;1.00;0.60;;;1.50;99.90;;;;;;5071567;28;20435;-56
2021/01/13 07:55:16;;;;;;;1.13;0.60;;;1.60;99.90;;;;;;5071724;28;20430;-58
2021/01/13 07:57:49;;;;;;;1.40;0.55;;;1.60;99.90;;;;;;5069437;28;20747;-56
2021/01/13 08:00:25;;;;;;;1.92;0.50;;;1.60;99.90;;;;;;5063093;28;20432;-57
2021/01/13 08:03:38;;;;;;;0.73;0.57;;;1.90;99.90;;;;;;5059105;28;20841;-57
2021/01/13 08:06:27;;;;;;;1.60;0.50;;;2.00;99.90;;;;;;5070767;28;20438;-60
2021/01/13 08:09:09;;;;;;;1.20;0.50;;;2.10;99.90;;;;;;5070110;28;20814;-58
2021/01/13 08:12:03;;;;;;;1.10;0.50;;;2.10;99.90;;;;;;5071871;28;20431;-58
2021/01/13 08:15:01;;;;;;;0.98;0.50;;;2.00;99.90;;;;;;5037056;28;20419;-58
2021/01/13 08:17:40;;;;;;;0.90;0.50;;;2.00;99.90;;;;;;5069854;28;20727;-57
2021/01/13 08:20:58;;;;;;;1.60;0.60;;;2.00;99.90;;;;;;5107407;27;20365;-58
2021/01/13 08:23:35;;;;;;;1.70;0.50;;;2.00;99.90;;;;;;5099700;28;20500;-58
2021/01/13 08:26:02;;;;;;;2.28;0.60;;;2.00;99.90;;;;;;5088448;28;20418;-59
2021/01/13 08:28:37;;;;;;;1.77;0.70;;;2.10;99.90;;;;;;5101042;28;20421;-60
2021/01/13 08:31:05;;;;;;;1.80;0.70;;;2.10;99.90;;;;;;5109625;28;20855;-60
2021/01/13 08:33:34;;;;;;;1.00;0.60;;;2.10;99.90;;;;;;5107983;28;20421;-59
2021/01/13 08:36:08;;;;;;;2.05;0.70;;;2.10;99.90;;;;;;5108242;28;20427;-59
2021/01/13 08:38:35;;;;;;;2.40;0.70;;;2.10;99.90;;;;;;5109521;28;20438;-59
2021/01/13 08:41:25;;;;;;;1.60;0.80;;;2.00;99.90;;;;;;5107703;28;20752;-59
2021/01/13 08:44:03;;;;;;;1.75;0.80;;;2.00;99.90;;;;;;5109232;28;20421;-59
2021/01/13 08:46:42;;;;;;;1.90;0.80;;;2.00;99.90;;;;;;5099864;28;20768;-58
2021/01/13 08:49:09;;;;;;;1.27;0.70;;;1.90;99.90;;;;;;5088057;28;20419;-58
2021/01/13 08:51:37;;;;;;;1.77;0.80;;;2.00;99.90;;;;;;5093928;28;20997;-59
2021/01/13 08:54:21;;;;;;;1.17;0.70;;;2.10;99.90;;;;;;5083332;28;20429;-59
2021/01/13 08:57:07;;;;;;;1.50;0.80;;;2.10;99.90;;;;;;5106420;28;20431;-59
2021/01/13 08:59:36;;;;;;;2.20;0.70;;;2.20;99.90;;;;;;5097555;28;20512;-58
2021/01/13 09:02:06;;;;;;;1.92;0.75;;;2.10;99.90;;;;;;5104878;28;20443;-58
2021/01/13 09:04:49;;;;;;;1.50;0.70;;;2.10;99.90;;;;;;5091174;28;20427;-59
2021/01/13 09:07:18;;;;;;;1.20;0.60;;;2.10;99.90;;;;;;5102175;28;20985;-58
2021/01/13 09:09:58;;;;;;;1.50;0.60;;;2.20;99.90;;;;;;5097180;28;20550;-58
2021/01/13 09:12:30;;;;;;;1.30;0.50;;;2.40;99.90;;;;;;5103042;28;20927;-58
2021/01/13 09:15:19;;;;;;;1.33;0.60;;;2.50;99.90;;;;;;5099297;28;20505;-58
2021/01/13 09:17:51;;;;;;;2.92;0.60;;;2.50;99.90;;;;;;5088029;28;20871;-57
2021/01/13 09:20:21;;;;;;;1.20;0.60;;;2.50;99.90;;;;;;5103856;28;20500;-58
2021/01/13 09:22:50;;;;;;;1.30;0.60;;;2.50;99.90;;;;;;5092889;28;20425;-57
2021/01/13 09:25:18;;;;;;;1.33;0.60;;;2.50;99.90;;;;;;5101218;28;20431;-59
2021/01/13 09:27:46;;;;;;;1.20;0.50;;;2.60;99.90;;;;;;5098910;28;20462;-58
2021/01/13 09:30:43;;;;;;;0.80;0.50;;;2.70;99.90;;;;;;5101701;28;20455;-59
2021/01/13 09:33:11;;;;;;;1.20;0.50;;;2.70;99.90;;;;;;5095552;28;20443;-58
2021/01/13 09:35:41;;;;;;;3.50;0.60;;;2.80;99.90;;;;;;5077166;28;20420;-59
2021/01/13 09:38:10;;;;;;;2.30;0.50;;;3.00;99.90;;;;;;5073519;28;20480;-58
2021/01/13 09:40:59;;;;;;;1.20;0.50;;;2.90;99.90;;;;;;5073371;28;20430;-59
2021/01/13 09:43:28;;;;;;;1.98;0.50;;;3.00;99.90;;;;;;5068447;28;20874;-58
2021/01/13 09:45:56;;;;;;;0.80;0.50;;;2.90;99.90;;;;;;5078719;28;20782;-58
2021/01/13 09:48:25;;;;;;;0.90;0.40;;;3.00;99.90;;;;;;5092978;28;20765;-58
2021/01/13 09:51:00;;;;;;;2.70;0.45;;;3.00;99.90;;;;;;5085249;28;20861;-58
2021/01/13 09:53:34;;;;;;;0.80;0.40;;;3.00;99.90;;;;;;5074768;28;20512;-59
2021/01/13 09:56:03;;;;;;;1.90;0.40;;;3.10;99.90;;;;;;5086165;28;20767;-58
2021/01/13 09:58:39;;;;;;;1.03;0.40;;;3.10;99.90;;;;;;5085760;28;20513;-59
2021/01/13 10:01:11;;;;;;;0.90;0.40;;;3.20;99.90;;;;;;5090996;28;20662;-59
2021/01/13 10:03:38;;;;;;;1.38;0.60;;;3.10;99.90;;;;;;5092411;28;20436;-57
2021/01/13 10:06:16;;;;;;;1.00;0.40;;;3.10;99.90;;;;;;5091639;28;20425;-58
2021/01/13 10:08:46;;;;;;;1.20;0.40;;;3.10;99.90;;;;;;5072893;28;20520;-58
2021/01/13 10:11:13;;;;;;;0.90;0.40;;;3.20;99.90;;;;;;5083027;28;20689;-57
2021/01/13 10:13:41;;;;;;;0.70;0.40;;;3.30;99.90;;;;;;5092272;28;20556;-58
2021/01/13 10:16:09;;;;;;;0.90;0.50;;;3.30;99.90;;;;;;5091928;28;20418;-59
2021/01/13 10:18:48;;;;;;;3.00;0.50;;;3.50;99.90;;;;;;5085716;28;20441;-58
2021/01/13 10:21:17;;;;;;;2.10;0.40;;;3.40;99.90;;;;;;5074695;28;20845;-58
2021/01/13 10:23:45;;;;;;;2.00;0.50;;;3.40;99.90;;;;;;5074881;28;20867;-58
2021/01/13 10:26:12;;;;;;;1.30;0.50;;;3.50;99.90;;;;;;5068052;28;21067;-60
2021/01/13 10:28:39;;;;;;;3.42;0.43;;;3.60;99.90;;;;;;5070683;28;20821;-58
2021/01/13 10:31:08;;;;;;;1.00;0.40;;;3.60;99.90;;;;;;5073216;28;20423;-58
2021/01/13 10:33:47;;;;;;;0.90;0.45;;;3.60;99.90;;;;;;5076393;28;20428;-58
2021/01/13 10:36:37;;;;;;;2.50;0.50;;;3.50;99.90;;;;;;5071372;28;21009;-58
2021/01/13 10:39:16;;;;;;;1.30;0.50;;;3.60;99.90;;;;;;5083232;28;20472;-59
2021/01/13 10:41:45;;;;;;;2.20;0.50;;;3.70;99.90;;;;;;5077266;28;20420;-58
2021/01/13 10:44:14;;;;;;;1.42;0.50;;;3.80;99.90;;;;;;5071697;28;20427;-58
2021/01/13 10:46:57;;;;;;;0.75;0.47;;;4.00;99.90;;;;;;5077646;28;20425;-59
2021/01/13 10:49:33;;;;;;;0.82;0.40;;;4.10;99.90;;;;;;5092148;28;20418;-58
2021/01/13 10:52:01;;;;;;;0.57;0.40;;;4.10;99.90;;;;;;5073857;28;20416;-58
2021/01/13 10:54:30;;;;;;;1.48;0.47;;;4.00;99.90;;;;;;5090741;28;20421;-58
2021/01/13 10:57:02;;;;;;;1.55;0.40;;;4.10;99.90;;;;;;5082389;28;20430;-60
2021/01/13 10:59:29;;;;;;;1.70;0.40;;;4.10;99.90;;;;;;5077521;28;20428;-58
2021/01/13 11:02:00;;;;;;;0.70;0.40;;;4.40;99.90;;;;;;5076663;28;20455;-58
2021/01/13 11:04:35;;;;;;;2.30;0.50;;;4.40;99.90;;;;;;5081695;28;20763;-59
2021/01/13 11:07:04;;;;;;;0.90;0.40;;;4.20;99.90;;;;;;5066094;28;20438;-58
2021/01/13 11:09:32;;;;;;;3.20;0.70;;;4.20;99.90;;;;;;5073027;28;20422;-59
2021/01/13 11:11:59;;;;;;;1.87;0.40;;;4.40;99.90;;;;;;5077130;28;20469;-58
2021/01/13 11:14:32;;;;;;;1.00;0.50;;;4.40;99.90;;;;;;5073509;28;20416;-58
2021/01/13 11:17:04;;;;;;;1.80;0.50;;;4.70;99.90;;;;;;5074623;28;20533;-58
2021/01/13 11:19:31;;;;;;;1.00;0.40;;;4.90;99.90;;;;;;5075063;28;20485;-58
2021/01/13 11:21:58;;;;;;;0.80;0.50;;;5.10;99.90;;;;;;5081965;28;20455;-59
2021/01/13 11:24:34;;;;;;;1.50;0.40;;;5.10;99.90;;;;;;5071624;28;20467;-58
2021/01/13 11:27:03;;;;;;;1.20;0.30;;;5.00;99.90;;;;;;5070575;28;20434;-58
2021/01/13 11:29:32;;;;;;;1.08;0.40;;;4.80;99.90;;;;;;5071405;28;20440;-58
2021/01/13 11:31:59;;;;;;;0.60;0.40;;;4.70;99.90;;;;;;5078063;28;20725;-58
2021/01/13 11:34:26;;;;;;;0.75;0.40;;;4.70;99.90;;;;;;5084873;28;20726;-59
2021/01/13 11:37:26;;;;;;;1.10;0.40;;;4.90;99.90;;;;;;5082678;28;20422;-59
2021/01/13 11:40:09;;;;;;;1.30;0.40;;;4.90;99.90;;;;;;5079413;28;20442;-59
2021/01/13 11:43:07;;;;;;;1.10;0.40;;;5.00;99.90;;;;;;5087954;28;20449;-59
2021/01/13 11:45:42;;;;;;;0.80;0.50;;;5.00;99.90;;;;;;5071934;28;20424;-59
2021/01/13 11:48:15;;;;;;;2.20;0.40;;;5.10;99.90;;;;;;5071151;28;20427;-59
2021/01/13 11:50:46;;;;;;;1.05;0.30;;;5.00;99.90;;;;;;5067485;28;21083;-59
2021/01/13 11:53:22;;;;;;;1.00;0.40;;;5.00;99.90;;;;;;5074370;28;20465;-59
2021/01/13 11:55:50;;;;;;;0.70;0.40;;;5.00;99.90;;;;;;5068125;28;20519;-58
2021/01/13 11:58:16;;;;;;;1.40;0.40;;;5.00;99.90;;;;;;5076540;28;20428;-58
2021/01/13 12:00:43;;;;;;;1.30;0.40;;;5.00;99.90;;;;;;5086611;28;20418;-59
2021/01/13 12:03:18;;;;;;;0.70;0.40;;;5.00;99.90;;;;;;5076783;28;20522;-59
2021/01/13 12:05:45;;;;;;;0.75;0.30;;;5.10;99.90;;;;;;5080354;28;20490;-58
2021/01/13 12:08:13;;;;;;;0.50;0.30;;;5.20;99.90;;;;;;5063104;28;20445;-61
2021/01/13 12:10:40;;;;;;;2.80;0.40;;;4.90;99.90;;;;;;5071707;28;20434;-58
2021/01/13 12:13:17;;;;;;;0.45;0.20;;;5.10;99.90;;;;;;5073773;28;20430;-58
2021/01/13 12:15:48;;;;;;;0.70;0.30;;;5.20;99.90;;;;;;5070747;28;20747;-58
2021/01/13 12:18:19;;;;;;;0.50;0.20;;;5.20;99.90;;;;;;5072003;28;20904;-59
2021/01/13 12:20:45;;;;;;;2.00;0.30;;;5.30;99.90;;;;;;5079292;28;20418;-58
2021/01/13 12:23:30;;;;;;;0.80;0.30;;;5.40;99.90;;;;;;5067619;28;20431;-58
2021/01/13 12:26:19;;;;;;;0.80;0.30;;;5.20;99.90;;;;;;5076009;28;20472;-58
2021/01/13 12:28:48;;;;;;;0.70;0.30;;;5.00;99.90;;;;;;5063639;28;20456;-58
2021/01/13 12:31:15;;;;;;;1.00;0.20;;;5.00;99.90;;;;;;5071856;28;20507;-59
2021/01/13 12:33:50;;;;;;;0.70;0.30;;;4.90;99.90;;;;;;5067720;28;20443;-60
2021/01/13 12:36:22;;;;;;;0.50;0.20;;;5.00;99.90;;;;;;5069069;28;20510;-59
2021/01/13 12:38:49;;;;;;;0.45;0.20;;;5.10;99.90;;;;;;5070123;28;20435;-59
2021/01/13 12:41:23;;;;;;;0.50;0.20;;;5.40;99.90;;;;;;5067070;28;21587;-59
2021/01/13 12:43:50;;;;;;;0.52;0.20;;;5.40;99.90;;;;;;5069763;28;20500;-59
2021/01/13 12:46:28;;;;;;;0.38;0.20;;;5.50;99.90;;;;;;5079921;28;21138;-59
2021/01/13 12:48:55;;;;;;;0.50;0.10;;;5.30;99.90;;;;;;5070343;28;20431;-59
2021/01/13 12:51:21;;;;;;;1.45;0.20;;;5.20;99.90;;;;;;5069224;28;20427;-60
2021/01/13 12:53:48;;;;;;;0.40;0.20;;;5.20;99.90;;;;;;5067830;28;20435;-57
2021/01/13 12:56:21;;;;;;;0.40;0.20;;;5.40;99.90;;;;;;5069625;28;20418;-59
2021/01/13 12:58:48;;;;;;;1.05;0.30;;;5.50;99.90;;;;;;5061135;28;20427;-58
2021/01/13 13:01:15;;;;;;;0.60;0.30;;;5.60;99.90;;;;;;5069843;28;20434;-59
2021/01/13 13:03:43;;;;;;;0.75;0.20;;;5.80;99.90;;;;;;5071963;28;20529;-60
2021/01/13 13:06:10;;;;;;;0.47;0.20;;;5.90;99.90;;;;;;5073324;28;20915;-59
2021/01/13 13:08:36;;;;;;;1.50;0.20;;;5.60;99.90;;;;;;5071296;28;20569;-58
2021/01/13 13:11:22;;;;;;;0.50;0.20;;;5.40;99.90;;;;;;5071447;28;20491;-60
2021/01/13 13:13:48;;;;;;;0.70;0.20;;;5.50;99.90;;;;;;5071582;28;20448;-59
2021/01/13 13:16:15;;;;;;;0.70;0.20;;;5.70;99.90;;;;;;5067832;28;20472;-59
2021/01/13 13:18:42;;;;;;;0.40;0.20;;;5.80;99.90;;;;;;5069231;28;20440;-59
2021/01/13 13:21:12;;;;;;;0.60;0.20;;;6.00;99.90;;;;;;5062160;28;20421;-59
2021/01/13 13:23:39;;;;;;;1.08;0.20;;;5.80;99.90;;;;;;5075670;28;20509;-59
2021/01/13 13:26:06;;;;;;;0.40;0.20;;;5.70;99.90;;;;;;5081220;28;20432;-60
2021/01/13 13:28:32;;;;;;;1.10;0.20;;;5.40;99.90;;;;;;5077439;28;20469;-59